sensor_id;sensor_type;location;lat;lon;timestamp;P1;durP1;ratioP1;P2;durP2;ratioP2
27438;SDS011;14887;51.252;7.470;2022-08-19T00:01:24;26.50;;;16.40;;
27438;SDS011;14887;51.252;7.470;2022-08-19T00:03:51;23.67;;;15.80;;
27438;SDS011;14887;51.252;7.470;2022-08-19T00:06:17;24.20;;;15.20;;
27438;SDS011;14887;51.252;7.470;2022-08-19T00:08:43;28.13;;;16.40;;
27438;SDS011;14887;51.252;7.470;2022-08-19T00:11:10;29.17;;;16.93;;
27438;SDS011;14887;51.252;7.470;2022-08-19T00:13:36;27.17;;;16.20;;
27438;SDS011;14887;51.252;7.470;2022-08-19T00:16:03;27.93;;;15.77;;
27438;SDS011;14887;51.252;7.470;2022-08-19T00:18:30;28.30;;;18.10;;
27438;SDS011;14887;51.252;7.470;2022-08-19T00:20:56;27.90;;;17.43;;
27438;SDS011;14887;51.252;7.470;2022-08-19T00:23:24;29.17;;;19.30;;
27438;SDS011;14887;51.252;7.470;2022-08-19T00:25:50;34.70;;;19.50;;
27438;SDS011;14887;51.252;7.470;2022-08-19T00:28:17;30.80;;;19.27;;
27438;SDS011;14887;51.252;7.470;2022-08-19T00:30:43;30.40;;;17.60;;
27438;SDS011;14887;51.252;7.470;2022-08-19T00:33:09;32.60;;;19.27;;
27438;SDS011;14887;51.252;7.470;2022-08-19T00:35:35;25.40;;;17.10;;
27438;SDS011;14887;51.252;7.470;2022-08-19T00:38:03;39.30;;;20.07;;
27438;SDS011;14887;51.252;7.470;2022-08-19T00:40:30;38.00;;;19.70;;
27438;SDS011;14887;51.252;7.470;2022-08-19T00:42:56;28.33;;;19.43;;
27438;SDS011;14887;51.252;7.470;2022-08-19T00:45:25;30.33;;;18.17;;
27438;SDS011;14887;51.252;7.470;2022-08-19T00:47:51;29.23;;;18.70;;
27438;SDS011;14887;51.252;7.470;2022-08-19T00:50:18;25.43;;;16.50;;
27438;SDS011;14887;51.252;7.470;2022-08-19T00:52:45;31.60;;;18.70;;
27438;SDS011;14887;51.252;7.470;2022-08-19T00:55:16;33.80;;;20.20;;
27438;SDS011;14887;51.252;7.470;2022-08-19T00:57:46;32.17;;;19.20;;
27438;SDS011;14887;51.252;7.470;2022-08-19T01:00:16;30.73;;;18.00;;
27438;SDS011;14887;51.252;7.470;2022-08-19T01:02:43;38.93;;;20.23;;
27438;SDS011;14887;51.252;7.470;2022-08-19T01:05:11;32.60;;;19.03;;
27438;SDS011;14887;51.252;7.470;2022-08-19T01:07:38;31.13;;;19.63;;
27438;SDS011;14887;51.252;7.470;2022-08-19T01:10:06;29.97;;;19.83;;
27438;SDS011;14887;51.252;7.470;2022-08-19T01:12:33;30.87;;;19.70;;
27438;SDS011;14887;51.252;7.470;2022-08-19T01:14:59;30.53;;;18.67;;
27438;SDS011;14887;51.252;7.470;2022-08-19T01:17:25;37.67;;;21.20;;
27438;SDS011;14887;51.252;7.470;2022-08-19T01:19:51;28.40;;;19.17;;
27438;SDS011;14887;51.252;7.470;2022-08-19T01:24:50;35.30;;;19.53;;
27438;SDS011;14887;51.252;7.470;2022-08-19T01:27:17;27.53;;;17.73;;
27438;SDS011;14887;51.252;7.470;2022-08-19T01:29:43;26.10;;;16.77;;
27438;SDS011;14887;51.252;7.470;2022-08-19T01:32:13;26.73;;;18.17;;
27438;SDS011;14887;51.252;7.470;2022-08-19T01:34:40;25.50;;;17.40;;
27438;SDS011;14887;51.252;7.470;2022-08-19T01:37:07;34.80;;;18.73;;
27438;SDS011;14887;51.252;7.470;2022-08-19T01:39:35;25.03;;;17.80;;
27438;SDS011;14887;51.252;7.470;2022-08-19T01:42:02;22.13;;;15.87;;
27438;SDS011;14887;51.252;7.470;2022-08-19T01:44:29;26.03;;;16.37;;
27438;SDS011;14887;51.252;7.470;2022-08-19T01:46:55;22.17;;;16.30;;
27438;SDS011;14887;51.252;7.470;2022-08-19T01:49:22;23.40;;;16.00;;
27438;SDS011;14887;51.252;7.470;2022-08-19T01:51:51;29.53;;;16.07;;
27438;SDS011;14887;51.252;7.470;2022-08-19T01:54:20;26.10;;;15.73;;
27438;SDS011;14887;51.252;7.470;2022-08-19T01:56:46;24.40;;;15.50;;
27438;SDS011;14887;51.252;7.470;2022-08-19T01:59:16;29.10;;;16.33;;
27438;SDS011;14887;51.252;7.470;2022-08-19T02:01:43;30.10;;;18.37;;
27438;SDS011;14887;51.252;7.470;2022-08-19T02:04:11;25.10;;;17.27;;
27438;SDS011;14887;51.252;7.470;2022-08-19T02:06:43;26.00;;;18.20;;
27438;SDS011;14887;51.252;7.470;2022-08-19T02:09:12;28.77;;;16.70;;
27438;SDS011;14887;51.252;7.470;2022-08-19T02:11:38;26.33;;;17.27;;
27438;SDS011;14887;51.252;7.470;2022-08-19T02:14:06;20.80;;;14.80;;
27438;SDS011;14887;51.252;7.470;2022-08-19T02:16:33;22.60;;;14.70;;
27438;SDS011;14887;51.252;7.470;2022-08-19T02:18:59;19.33;;;13.17;;
27438;SDS011;14887;51.252;7.470;2022-08-19T02:21:25;22.27;;;14.47;;
27438;SDS011;14887;51.252;7.470;2022-08-19T02:23:51;20.73;;;13.70;;
27438;SDS011;14887;51.252;7.470;2022-08-19T02:26:17;22.90;;;13.07;;
27438;SDS011;14887;51.252;7.470;2022-08-19T02:28:44;26.23;;;11.83;;
27438;SDS011;14887;51.252;7.470;2022-08-19T02:31:14;23.90;;;13.30;;
27438;SDS011;14887;51.252;7.470;2022-08-19T02:33:40;22.67;;;14.07;;
27438;SDS011;14887;51.252;7.470;2022-08-19T02:36:07;18.20;;;12.57;;
27438;SDS011;14887;51.252;7.470;2022-08-19T02:38:33;21.80;;;14.10;;
27438;SDS011;14887;51.252;7.470;2022-08-19T02:41:01;20.00;;;13.40;;
27438;SDS011;14887;51.252;7.470;2022-08-19T02:43:28;24.00;;;14.47;;
27438;SDS011;14887;51.252;7.470;2022-08-19T02:45:54;19.63;;;12.97;;
27438;SDS011;14887;51.252;7.470;2022-08-19T02:48:20;21.63;;;13.73;;
27438;SDS011;14887;51.252;7.470;2022-08-19T02:50:47;21.97;;;14.77;;
27438;SDS011;14887;51.252;7.470;2022-08-19T02:53:19;21.47;;;13.50;;
27438;SDS011;14887;51.252;7.470;2022-08-19T02:55:47;23.03;;;14.23;;
27438;SDS011;14887;51.252;7.470;2022-08-19T02:58:13;26.23;;;16.07;;
27438;SDS011;14887;51.252;7.470;2022-08-19T03:00:48;25.87;;;13.80;;
27438;SDS011;14887;51.252;7.470;2022-08-19T03:03:15;22.30;;;15.07;;
27438;SDS011;14887;51.252;7.470;2022-08-19T03:05:41;23.20;;;13.77;;
27438;SDS011;14887;51.252;7.470;2022-08-19T03:08:08;23.60;;;14.07;;
27438;SDS011;14887;51.252;7.470;2022-08-19T03:10:41;24.53;;;14.30;;
27438;SDS011;14887;51.252;7.470;2022-08-19T03:13:08;26.90;;;14.53;;
27438;SDS011;14887;51.252;7.470;2022-08-19T03:15:38;24.40;;;13.87;;
27438;SDS011;14887;51.252;7.470;2022-08-19T03:18:04;21.73;;;14.50;;
27438;SDS011;14887;51.252;7.470;2022-08-19T03:20:30;23.87;;;13.07;;
27438;SDS011;14887;51.252;7.470;2022-08-19T03:22:56;22.73;;;13.00;;
27438;SDS011;14887;51.252;7.470;2022-08-19T03:25:22;25.90;;;14.40;;
27438;SDS011;14887;51.252;7.470;2022-08-19T03:27:48;19.57;;;13.83;;
27438;SDS011;14887;51.252;7.470;2022-08-19T03:30:14;24.87;;;15.60;;
27438;SDS011;14887;51.252;7.470;2022-08-19T03:32:40;22.40;;;14.20;;
27438;SDS011;14887;51.252;7.470;2022-08-19T03:35:06;23.17;;;15.40;;
27438;SDS011;14887;51.252;7.470;2022-08-19T03:37:33;23.70;;;16.03;;
27438;SDS011;14887;51.252;7.470;2022-08-19T03:40:02;29.93;;;17.13;;
27438;SDS011;14887;51.252;7.470;2022-08-19T03:42:28;27.77;;;15.97;;
27438;SDS011;14887;51.252;7.470;2022-08-19T03:44:55;25.57;;;16.93;;
27438;SDS011;14887;51.252;7.470;2022-08-19T03:47:21;28.13;;;16.03;;
27438;SDS011;14887;51.252;7.470;2022-08-19T03:49:47;22.67;;;15.10;;
27438;SDS011;14887;51.252;7.470;2022-08-19T03:52:13;23.30;;;14.27;;
27438;SDS011;14887;51.252;7.470;2022-08-19T03:54:39;21.57;;;15.20;;
27438;SDS011;14887;51.252;7.470;2022-08-19T03:57:05;20.50;;;13.47;;
27438;SDS011;14887;51.252;7.470;2022-08-19T03:59:32;30.83;;;13.00;;
27438;SDS011;14887;51.252;7.470;2022-08-19T04:01:59;18.80;;;12.50;;
27438;SDS011;14887;51.252;7.470;2022-08-19T04:04:26;17.90;;;11.60;;
27438;SDS011;14887;51.252;7.470;2022-08-19T04:06:52;24.03;;;12.97;;
27438;SDS011;14887;51.252;7.470;2022-08-19T04:09:19;16.70;;;11.80;;
27438;SDS011;14887;51.252;7.470;2022-08-19T04:11:46;17.37;;;11.53;;
27438;SDS011;14887;51.252;7.470;2022-08-19T04:14:15;15.57;;;10.60;;
27438;SDS011;14887;51.252;7.470;2022-08-19T04:16:42;16.80;;;10.80;;
27438;SDS011;14887;51.252;7.470;2022-08-19T04:19:09;19.50;;;11.20;;
27438;SDS011;14887;51.252;7.470;2022-08-19T04:21:35;23.00;;;12.10;;
27438;SDS011;14887;51.252;7.470;2022-08-19T04:24:02;18.63;;;12.37;;
27438;SDS011;14887;51.252;7.470;2022-08-19T04:26:29;18.57;;;12.27;;
27438;SDS011;14887;51.252;7.470;2022-08-19T04:28:57;15.10;;;10.87;;
27438;SDS011;14887;51.252;7.470;2022-08-19T04:31:24;17.20;;;11.60;;
27438;SDS011;14887;51.252;7.470;2022-08-19T04:34:02;22.17;;;11.23;;
27438;SDS011;14887;51.252;7.470;2022-08-19T04:36:30;15.37;;;10.70;;
27438;SDS011;14887;51.252;7.470;2022-08-19T04:38:57;16.33;;;10.47;;
27438;SDS011;14887;51.252;7.470;2022-08-19T04:41:23;13.47;;;10.00;;
27438;SDS011;14887;51.252;7.470;2022-08-19T04:44:08;16.60;;;11.70;;
27438;SDS011;14887;51.252;7.470;2022-08-19T04:46:35;16.20;;;10.33;;
27438;SDS011;14887;51.252;7.470;2022-08-19T04:49:02;23.70;;;11.33;;
27438;SDS011;14887;51.252;7.470;2022-08-19T04:51:29;15.83;;;11.63;;
27438;SDS011;14887;51.252;7.470;2022-08-19T04:53:56;17.60;;;11.60;;
27438;SDS011;14887;51.252;7.470;2022-08-19T04:56:25;21.63;;;13.03;;
27438;SDS011;14887;51.252;7.470;2022-08-19T04:58:52;21.63;;;13.40;;
27438;SDS011;14887;51.252;7.470;2022-08-19T05:01:20;23.50;;;14.00;;
27438;SDS011;14887;51.252;7.470;2022-08-19T05:03:47;20.20;;;13.20;;
27438;SDS011;14887;51.252;7.470;2022-08-19T05:06:13;26.30;;;14.43;;
27438;SDS011;14887;51.252;7.470;2022-08-19T05:08:40;26.90;;;14.17;;
27438;SDS011;14887;51.252;7.470;2022-08-19T05:11:12;38.07;;;14.60;;
27438;SDS011;14887;51.252;7.470;2022-08-19T05:13:38;38.07;;;15.90;;
27438;SDS011;14887;51.252;7.470;2022-08-19T05:16:05;18.27;;;12.47;;
27438;SDS011;14887;51.252;7.470;2022-08-19T05:18:31;22.10;;;12.40;;
27438;SDS011;14887;51.252;7.470;2022-08-19T05:21:16;14.57;;;9.40;;
27438;SDS011;14887;51.252;7.470;2022-08-19T05:24:01;14.80;;;10.00;;
27438;SDS011;14887;51.252;7.470;2022-08-19T05:26:28;14.57;;;8.67;;
27438;SDS011;14887;51.252;7.470;2022-08-19T05:28:54;12.07;;;8.73;;
27438;SDS011;14887;51.252;7.470;2022-08-19T05:31:21;16.43;;;9.30;;
27438;SDS011;14887;51.252;7.470;2022-08-19T05:33:47;12.00;;;9.33;;
27438;SDS011;14887;51.252;7.470;2022-08-19T05:36:15;11.57;;;8.50;;
27438;SDS011;14887;51.252;7.470;2022-08-19T05:38:41;13.50;;;9.13;;
27438;SDS011;14887;51.252;7.470;2022-08-19T05:41:11;13.97;;;9.83;;
27438;SDS011;14887;51.252;7.470;2022-08-19T05:43:37;19.50;;;10.17;;
27438;SDS011;14887;51.252;7.470;2022-08-19T05:46:07;23.87;;;10.10;;
27438;SDS011;14887;51.252;7.470;2022-08-19T05:48:34;19.23;;;10.40;;
27438;SDS011;14887;51.252;7.470;2022-08-19T05:51:06;16.13;;;10.43;;
27438;SDS011;14887;51.252;7.470;2022-08-19T05:53:33;14.80;;;10.73;;
27438;SDS011;14887;51.252;7.470;2022-08-19T05:56:09;15.60;;;10.27;;
27438;SDS011;14887;51.252;7.470;2022-08-19T05:58:36;16.60;;;11.03;;
27438;SDS011;14887;51.252;7.470;2022-08-19T06:01:03;16.77;;;11.60;;
27438;SDS011;14887;51.252;7.470;2022-08-19T06:03:33;20.60;;;12.70;;
27438;SDS011;14887;51.252;7.470;2022-08-19T06:06:00;25.93;;;16.77;;
27438;SDS011;14887;51.252;7.470;2022-08-19T06:08:27;35.90;;;18.50;;
27438;SDS011;14887;51.252;7.470;2022-08-19T06:10:53;27.40;;;19.30;;
27438;SDS011;14887;51.252;7.470;2022-08-19T06:13:19;26.07;;;18.40;;
27438;SDS011;14887;51.252;7.470;2022-08-19T06:15:46;26.87;;;18.67;;
27438;SDS011;14887;51.252;7.470;2022-08-19T06:18:12;27.93;;;17.00;;
27438;SDS011;14887;51.252;7.470;2022-08-19T06:20:39;27.40;;;19.23;;
27438;SDS011;14887;51.252;7.470;2022-08-19T06:23:05;24.80;;;16.27;;
27438;SDS011;14887;51.252;7.470;2022-08-19T06:25:31;24.37;;;16.30;;
27438;SDS011;14887;51.252;7.470;2022-08-19T06:27:57;28.20;;;15.60;;
27438;SDS011;14887;51.252;7.470;2022-08-19T06:30:23;22.30;;;16.03;;
27438;SDS011;14887;51.252;7.470;2022-08-19T06:32:49;27.40;;;14.90;;
27438;SDS011;14887;51.252;7.470;2022-08-19T06:35:15;32.53;;;16.20;;
27438;SDS011;14887;51.252;7.470;2022-08-19T06:37:41;24.60;;;17.37;;
27438;SDS011;14887;51.252;7.470;2022-08-19T06:40:08;27.00;;;18.20;;
27438;SDS011;14887;51.252;7.470;2022-08-19T06:42:35;28.43;;;18.97;;
27438;SDS011;14887;51.252;7.470;2022-08-19T06:45:03;28.10;;;19.20;;
27438;SDS011;14887;51.252;7.470;2022-08-19T06:47:29;47.80;;;19.80;;
27438;SDS011;14887;51.252;7.470;2022-08-19T06:49:57;28.40;;;20.97;;
27438;SDS011;14887;51.252;7.470;2022-08-19T06:52:33;36.40;;;21.67;;
27438;SDS011;14887;51.252;7.470;2022-08-19T06:55:00;33.13;;;22.20;;
27438;SDS011;14887;51.252;7.470;2022-08-19T06:57:26;31.53;;;21.80;;
27438;SDS011;14887;51.252;7.470;2022-08-19T06:59:57;35.83;;;21.83;;
27438;SDS011;14887;51.252;7.470;2022-08-19T07:02:25;32.13;;;19.27;;
27438;SDS011;14887;51.252;7.470;2022-08-19T07:04:51;33.97;;;21.10;;
27438;SDS011;14887;51.252;7.470;2022-08-19T07:07:18;27.00;;;18.10;;
27438;SDS011;14887;51.252;7.470;2022-08-19T07:09:46;29.43;;;20.47;;
27438;SDS011;14887;51.252;7.470;2022-08-19T07:12:13;27.00;;;18.23;;
27438;SDS011;14887;51.252;7.470;2022-08-19T07:14:42;28.17;;;17.60;;
27438;SDS011;14887;51.252;7.470;2022-08-19T07:17:11;24.93;;;17.03;;
27438;SDS011;14887;51.252;7.470;2022-08-19T07:19:37;25.97;;;16.10;;
27438;SDS011;14887;51.252;7.470;2022-08-19T07:22:05;22.73;;;15.70;;
27438;SDS011;14887;51.252;7.470;2022-08-19T07:24:31;27.40;;;15.63;;
27438;SDS011;14887;51.252;7.470;2022-08-19T07:26:58;27.03;;;18.60;;
27438;SDS011;14887;51.252;7.470;2022-08-19T07:29:28;27.87;;;16.60;;
27438;SDS011;14887;51.252;7.470;2022-08-19T07:31:55;21.80;;;17.60;;
27438;SDS011;14887;51.252;7.470;2022-08-19T07:34:23;26.83;;;17.40;;
27438;SDS011;14887;51.252;7.470;2022-08-19T07:36:49;26.73;;;17.40;;
27438;SDS011;14887;51.252;7.470;2022-08-19T07:39:20;23.10;;;16.10;;
27438;SDS011;14887;51.252;7.470;2022-08-19T07:41:46;23.47;;;16.33;;
27438;SDS011;14887;51.252;7.470;2022-08-19T07:44:13;23.07;;;15.97;;
27438;SDS011;14887;51.252;7.470;2022-08-19T07:46:44;21.17;;;14.53;;
27438;SDS011;14887;51.252;7.470;2022-08-19T07:49:11;22.20;;;15.10;;
27438;SDS011;14887;51.252;7.470;2022-08-19T07:51:42;18.53;;;14.07;;
27438;SDS011;14887;51.252;7.470;2022-08-19T07:54:08;19.40;;;14.17;;
27438;SDS011;14887;51.252;7.470;2022-08-19T07:56:34;26.33;;;13.87;;
27438;SDS011;14887;51.252;7.470;2022-08-19T07:59:00;18.20;;;13.30;;
27438;SDS011;14887;51.252;7.470;2022-08-19T08:01:27;16.70;;;13.10;;
27438;SDS011;14887;51.252;7.470;2022-08-19T08:03:53;16.07;;;11.90;;
27438;SDS011;14887;51.252;7.470;2022-08-19T08:06:40;16.30;;;12.30;;
27438;SDS011;14887;51.252;7.470;2022-08-19T08:09:28;17.03;;;12.63;;
27438;SDS011;14887;51.252;7.470;2022-08-19T08:11:55;17.03;;;12.63;;
27438;SDS011;14887;51.252;7.470;2022-08-19T08:14:23;15.13;;;12.13;;
27438;SDS011;14887;51.252;7.470;2022-08-19T08:16:50;18.83;;;12.93;;
27438;SDS011;14887;51.252;7.470;2022-08-19T08:19:17;17.17;;;11.93;;
27438;SDS011;14887;51.252;7.470;2022-08-19T08:21:43;19.23;;;12.93;;
27438;SDS011;14887;51.252;7.470;2022-08-19T08:24:09;15.23;;;12.63;;
27438;SDS011;14887;51.252;7.470;2022-08-19T08:26:35;13.93;;;12.00;;
27438;SDS011;14887;51.252;7.470;2022-08-19T08:29:02;17.20;;;11.33;;
27438;SDS011;14887;51.252;7.470;2022-08-19T08:31:28;13.03;;;11.40;;
27438;SDS011;14887;51.252;7.470;2022-08-19T08:33:54;14.77;;;10.30;;
27438;SDS011;14887;51.252;7.470;2022-08-19T08:36:20;13.33;;;11.10;;
27438;SDS011;14887;51.252;7.470;2022-08-19T08:38:46;14.27;;;11.40;;
27438;SDS011;14887;51.252;7.470;2022-08-19T08:41:15;20.03;;;12.50;;
27438;SDS011;14887;51.252;7.470;2022-08-19T08:43:45;20.23;;;10.97;;
27438;SDS011;14887;51.252;7.470;2022-08-19T08:46:13;16.53;;;11.07;;
27438;SDS011;14887;51.252;7.470;2022-08-19T08:48:50;13.70;;;11.40;;
27438;SDS011;14887;51.252;7.470;2022-08-19T08:51:20;13.23;;;10.53;;
27438;SDS011;14887;51.252;7.470;2022-08-19T08:53:49;15.23;;;12.20;;
27438;SDS011;14887;51.252;7.470;2022-08-19T08:56:16;11.87;;;10.70;;
27438;SDS011;14887;51.252;7.470;2022-08-19T09:01:11;16.57;;;10.43;;
27438;SDS011;14887;51.252;7.470;2022-08-19T09:03:38;11.37;;;9.07;;
27438;SDS011;14887;51.252;7.470;2022-08-19T09:08:59;17.57;;;9.50;;
27438;SDS011;14887;51.252;7.470;2022-08-19T09:16:39;12.70;;;9.60;;
27438;SDS011;14887;51.252;7.470;2022-08-19T09:19:06;11.63;;;9.93;;
27438;SDS011;14887;51.252;7.470;2022-08-19T09:21:33;17.23;;;10.80;;
27438;SDS011;14887;51.252;7.470;2022-08-19T09:24:00;14.23;;;10.90;;
27438;SDS011;14887;51.252;7.470;2022-08-19T09:26:26;16.23;;;11.57;;
27438;SDS011;14887;51.252;7.470;2022-08-19T09:28:52;17.17;;;12.00;;
27438;SDS011;14887;51.252;7.470;2022-08-19T09:31:21;16.17;;;11.13;;
27438;SDS011;14887;51.252;7.470;2022-08-19T09:33:48;13.40;;;10.40;;
27438;SDS011;14887;51.252;7.470;2022-08-19T09:36:15;12.43;;;11.07;;
27438;SDS011;14887;51.252;7.470;2022-08-19T09:38:41;19.00;;;13.10;;
27438;SDS011;14887;51.252;7.470;2022-08-19T09:41:18;14.33;;;12.33;;
27438;SDS011;14887;51.252;7.470;2022-08-19T09:43:45;23.00;;;13.23;;
27438;SDS011;14887;51.252;7.470;2022-08-19T09:46:11;22.53;;;13.50;;
27438;SDS011;14887;51.252;7.470;2022-08-19T09:48:39;21.83;;;14.83;;
27438;SDS011;14887;51.252;7.470;2022-08-19T09:51:06;18.80;;;15.20;;
27438;SDS011;14887;51.252;7.470;2022-08-19T09:53:33;18.27;;;14.07;;
27438;SDS011;14887;51.252;7.470;2022-08-19T09:55:59;19.00;;;14.80;;
27438;SDS011;14887;51.252;7.470;2022-08-19T09:58:25;24.93;;;18.90;;
27438;SDS011;14887;51.252;7.470;2022-08-19T10:00:56;26.57;;;19.17;;
27438;SDS011;14887;51.252;7.470;2022-08-19T10:03:23;29.40;;;18.03;;
27438;SDS011;14887;51.252;7.470;2022-08-19T10:05:49;30.53;;;19.27;;
27438;SDS011;14887;51.252;7.470;2022-08-19T10:08:16;25.63;;;19.10;;
27438;SDS011;14887;51.252;7.470;2022-08-19T10:10:43;23.63;;;19.60;;
27438;SDS011;14887;51.252;7.470;2022-08-19T10:13:09;22.33;;;17.87;;
27438;SDS011;14887;51.252;7.470;2022-08-19T10:15:36;22.10;;;17.87;;
27438;SDS011;14887;51.252;7.470;2022-08-19T10:18:04;26.77;;;19.63;;
27438;SDS011;14887;51.252;7.470;2022-08-19T10:20:30;26.30;;;18.27;;
27438;SDS011;14887;51.252;7.470;2022-08-19T10:22:57;24.20;;;19.93;;
27438;SDS011;14887;51.252;7.470;2022-08-19T10:25:26;22.97;;;19.97;;
27438;SDS011;14887;51.252;7.470;2022-08-19T10:27:52;29.17;;;22.23;;
27438;SDS011;14887;51.252;7.470;2022-08-19T10:30:19;33.10;;;26.87;;
27438;SDS011;14887;51.252;7.470;2022-08-19T10:32:45;32.40;;;24.70;;
27438;SDS011;14887;51.252;7.470;2022-08-19T10:35:11;37.00;;;25.87;;
27438;SDS011;14887;51.252;7.470;2022-08-19T10:37:38;23.50;;;19.43;;
27438;SDS011;14887;51.252;7.470;2022-08-19T10:40:04;26.27;;;18.50;;
27438;SDS011;14887;51.252;7.470;2022-08-19T10:42:31;24.90;;;18.77;;
27438;SDS011;14887;51.252;7.470;2022-08-19T10:44:57;26.73;;;19.70;;
27438;SDS011;14887;51.252;7.470;2022-08-19T10:47:23;25.73;;;16.73;;
27438;SDS011;14887;51.252;7.470;2022-08-19T10:49:49;22.07;;;16.97;;
27438;SDS011;14887;51.252;7.470;2022-08-19T10:52:34;24.00;;;17.30;;
27438;SDS011;14887;51.252;7.470;2022-08-19T10:55:01;22.50;;;16.97;;
27438;SDS011;14887;51.252;7.470;2022-08-19T10:57:46;35.03;;;19.00;;
27438;SDS011;14887;51.252;7.470;2022-08-19T11:00:12;29.90;;;20.17;;
27438;SDS011;14887;51.252;7.470;2022-08-19T11:02:39;26.50;;;17.53;;
27438;SDS011;14887;51.252;7.470;2022-08-19T11:05:06;21.70;;;17.43;;
27438;SDS011;14887;51.252;7.470;2022-08-19T11:07:34;22.53;;;15.27;;
27438;SDS011;14887;51.252;7.470;2022-08-19T11:10:02;17.73;;;14.80;;
27438;SDS011;14887;51.252;7.470;2022-08-19T11:12:29;16.37;;;13.03;;
27438;SDS011;14887;51.252;7.470;2022-08-19T11:14:55;17.50;;;12.40;;
27438;SDS011;14887;51.252;7.470;2022-08-19T11:17:21;13.00;;;11.37;;
27438;SDS011;14887;51.252;7.470;2022-08-19T11:19:48;21.03;;;12.30;;
27438;SDS011;14887;51.252;7.470;2022-08-19T11:22:15;13.70;;;11.80;;
27438;SDS011;14887;51.252;7.470;2022-08-19T11:24:42;21.50;;;13.07;;
27438;SDS011;14887;51.252;7.470;2022-08-19T11:27:08;19.57;;;14.00;;
27438;SDS011;14887;51.252;7.470;2022-08-19T11:29:35;15.90;;;12.10;;
27438;SDS011;14887;51.252;7.470;2022-08-19T11:32:05;13.40;;;11.00;;
27438;SDS011;14887;51.252;7.470;2022-08-19T11:34:31;19.10;;;11.50;;
27438;SDS011;14887;51.252;7.470;2022-08-19T11:36:57;14.97;;;10.70;;
27438;SDS011;14887;51.252;7.470;2022-08-19T11:39:25;14.33;;;9.67;;
27438;SDS011;14887;51.252;7.470;2022-08-19T11:41:51;15.57;;;10.97;;
27438;SDS011;14887;51.252;7.470;2022-08-19T11:44:17;14.87;;;11.77;;
27438;SDS011;14887;51.252;7.470;2022-08-19T11:46:43;13.37;;;11.53;;
27438;SDS011;14887;51.252;7.470;2022-08-19T11:49:16;22.60;;;14.20;;
27438;SDS011;14887;51.252;7.470;2022-08-19T11:51:43;19.70;;;16.03;;
27438;SDS011;14887;51.252;7.470;2022-08-19T11:54:11;20.50;;;15.00;;
27438;SDS011;14887;51.252;7.470;2022-08-19T11:56:38;22.27;;;14.40;;
27438;SDS011;14887;51.252;7.470;2022-08-19T11:59:05;20.53;;;14.10;;
27438;SDS011;14887;51.252;7.470;2022-08-19T12:01:32;21.57;;;13.13;;
27438;SDS011;14887;51.252;7.470;2022-08-19T12:03:59;16.00;;;11.97;;
27438;SDS011;14887;51.252;7.470;2022-08-19T12:06:29;17.20;;;13.00;;
27438;SDS011;14887;51.252;7.470;2022-08-19T12:08:55;18.63;;;12.40;;
27438;SDS011;14887;51.252;7.470;2022-08-19T12:11:22;17.00;;;10.87;;
27438;SDS011;14887;51.252;7.470;2022-08-19T12:13:48;18.50;;;11.23;;
27438;SDS011;14887;51.252;7.470;2022-08-19T12:16:16;16.30;;;12.37;;
27438;SDS011;14887;51.252;7.470;2022-08-19T12:18:43;14.37;;;10.43;;
27438;SDS011;14887;51.252;7.470;2022-08-19T12:21:11;15.00;;;10.90;;
27438;SDS011;14887;51.252;7.470;2022-08-19T12:23:38;10.40;;;9.30;;
27438;SDS011;14887;51.252;7.470;2022-08-19T12:26:04;24.40;;;12.97;;
27438;SDS011;14887;51.252;7.470;2022-08-19T12:28:30;18.83;;;13.20;;
27438;SDS011;14887;51.252;7.470;2022-08-19T12:30:56;24.13;;;11.33;;
27438;SDS011;14887;51.252;7.470;2022-08-19T12:33:23;16.00;;;10.90;;
27438;SDS011;14887;51.252;7.470;2022-08-19T12:35:52;13.10;;;9.63;;
27438;SDS011;14887;51.252;7.470;2022-08-19T12:38:18;13.63;;;11.00;;
27438;SDS011;14887;51.252;7.470;2022-08-19T12:40:48;10.43;;;7.60;;
27438;SDS011;14887;51.252;7.470;2022-08-19T12:43:16;13.60;;;9.90;;
27438;SDS011;14887;51.252;7.470;2022-08-19T12:45:42;11.33;;;9.80;;
27438;SDS011;14887;51.252;7.470;2022-08-19T12:48:10;23.73;;;12.37;;
27438;SDS011;14887;51.252;7.470;2022-08-19T12:50:38;14.43;;;10.47;;
27438;SDS011;14887;51.252;7.470;2022-08-19T12:53:04;11.13;;;9.50;;
27438;SDS011;14887;51.252;7.470;2022-08-19T12:55:30;12.70;;;9.87;;
27438;SDS011;14887;51.252;7.470;2022-08-19T12:57:56;12.93;;;8.87;;
27438;SDS011;14887;51.252;7.470;2022-08-19T13:00:23;12.60;;;9.43;;
27438;SDS011;14887;51.252;7.470;2022-08-19T13:02:50;15.53;;;11.30;;
27438;SDS011;14887;51.252;7.470;2022-08-19T13:05:23;11.30;;;9.47;;
27438;SDS011;14887;51.252;7.470;2022-08-19T13:07:50;18.93;;;9.57;;
27438;SDS011;14887;51.252;7.470;2022-08-19T13:10:18;13.27;;;10.20;;
27438;SDS011;14887;51.252;7.470;2022-08-19T13:12:45;10.23;;;9.20;;
27438;SDS011;14887;51.252;7.470;2022-08-19T13:15:12;11.83;;;9.20;;
27438;SDS011;14887;51.252;7.470;2022-08-19T13:17:38;17.27;;;11.40;;
27438;SDS011;14887;51.252;7.470;2022-08-19T13:20:05;11.80;;;9.87;;
27438;SDS011;14887;51.252;7.470;2022-08-19T13:22:32;11.87;;;9.93;;
27438;SDS011;14887;51.252;7.470;2022-08-19T13:25:00;12.17;;;9.70;;
27438;SDS011;14887;51.252;7.470;2022-08-19T13:27:26;13.23;;;10.70;;
27438;SDS011;14887;51.252;7.470;2022-08-19T13:29:52;10.00;;;8.80;;
27438;SDS011;14887;51.252;7.470;2022-08-19T13:32:37;9.43;;;8.43;;
27438;SDS011;14887;51.252;7.470;2022-08-19T13:35:22;10.10;;;7.83;;
27438;SDS011;14887;51.252;7.470;2022-08-19T13:37:48;8.87;;;7.27;;
27438;SDS011;14887;51.252;7.470;2022-08-19T13:40:15;8.40;;;6.60;;
27438;SDS011;14887;51.252;7.470;2022-08-19T13:42:43;7.20;;;6.47;;
27438;SDS011;14887;51.252;7.470;2022-08-19T13:45:12;8.83;;;5.73;;
27438;SDS011;14887;51.252;7.470;2022-08-19T13:47:39;8.67;;;5.40;;
27438;SDS011;14887;51.252;7.470;2022-08-19T13:50:08;6.73;;;4.10;;
27438;SDS011;14887;51.252;7.470;2022-08-19T13:52:35;7.17;;;5.00;;
27438;SDS011;14887;51.252;7.470;2022-08-19T13:55:01;6.10;;;4.87;;
27438;SDS011;14887;51.252;7.470;2022-08-19T13:57:28;7.10;;;5.43;;
27438;SDS011;14887;51.252;7.470;2022-08-19T13:59:54;5.13;;;4.67;;
27438;SDS011;14887;51.252;7.470;2022-08-19T14:02:20;5.50;;;4.67;;
27438;SDS011;14887;51.252;7.470;2022-08-19T14:04:46;6.90;;;4.30;;
27438;SDS011;14887;51.252;7.470;2022-08-19T14:07:12;5.70;;;4.90;;
27438;SDS011;14887;51.252;7.470;2022-08-19T14:09:39;19.97;;;4.17;;
27438;SDS011;14887;51.252;7.470;2022-08-19T14:12:05;10.63;;;4.47;;
27438;SDS011;14887;51.252;7.470;2022-08-19T14:14:31;9.07;;;3.73;;
27438;SDS011;14887;51.252;7.470;2022-08-19T14:16:57;5.00;;;3.50;;
27438;SDS011;14887;51.252;7.470;2022-08-19T14:19:23;6.70;;;4.47;;
27438;SDS011;14887;51.252;7.470;2022-08-19T14:21:49;4.80;;;3.83;;
27438;SDS011;14887;51.252;7.470;2022-08-19T14:24:15;4.83;;;3.87;;
27438;SDS011;14887;51.252;7.470;2022-08-19T14:26:41;5.07;;;3.10;;
27438;SDS011;14887;51.252;7.470;2022-08-19T14:29:07;11.47;;;3.83;;
27438;SDS011;14887;51.252;7.470;2022-08-19T14:31:33;4.90;;;4.50;;
27438;SDS011;14887;51.252;7.470;2022-08-19T14:33:59;4.70;;;4.17;;
27438;SDS011;14887;51.252;7.470;2022-08-19T14:36:25;4.97;;;4.10;;
27438;SDS011;14887;51.252;7.470;2022-08-19T14:38:51;4.10;;;3.63;;